Time;durP1;ratioP1;P1;durP2;ratioP2;P2;SDS_P1;SDS_P2;PMS_P1;PMS_P2;Temp;Humidity;BMP_temperature;BMP_pressure;BME280_temperature;BME280_humidity;BME280_pressure;Samples;Min_cycle;Max_cycle;Signal;HPM_P1;HPM_P2
2022/07/17 00:01:21;;;;;;;9.38;2.00;;;;;;;15.74;100.00;102741.53;5095244;28;20031;-70
2022/07/17 00:03:46;;;;;;;5.30;1.77;;;;;;;15.72;100.00;102740.59;5095148;28;20030;-71
2022/07/17 00:06:13;;;;;;;5.95;2.00;;;;;;;15.80;100.00;102739.06;5095125;28;20471;-70
2022/07/17 00:08:38;;;;;;;10.40;2.58;;;;;;;15.75;100.00;102738.00;5094595;28;20032;-70
2022/07/17 00:11:04;;;;;;;8.00;2.50;;;;;;;15.74;100.00;102736.22;5095022;28;20064;-70
2022/07/17 00:13:29;;;;;;;7.60;2.25;;;;;;;15.67;100.00;102734.28;5095151;28;20024;-70
2022/07/17 00:15:54;;;;;;;6.57;2.00;;;;;;;15.64;100.00;102736.81;5108508;28;20536;-70
2022/07/17 00:18:20;;;;;;;8.70;2.00;;;;;;;15.59;100.00;102735.84;5096575;28;20442;-71
2022/07/17 00:20:45;;;;;;;9.25;2.58;;;;;;;15.66;100.00;102738.66;5083317;28;20019;-71
2022/07/17 00:23:11;;;;;;;5.72;1.70;;;;;;;15.88;100.00;102738.34;5101546;28;20073;-70
2022/07/17 00:25:36;;;;;;;6.50;1.60;;;;;;;15.85;100.00;102740.06;5115004;28;20386;-71
2022/07/17 00:28:03;;;;;;;7.03;2.08;;;;;;;15.69;100.00;102743.16;5115123;28;20019;-70
2022/07/17 00:30:28;;;;;;;12.23;2.15;;;;;;;15.62;100.00;102733.25;5114959;28;20027;-70
2022/07/17 00:32:53;;;;;;;3.60;1.77;;;;;;;15.49;100.00;102730.28;5114931;28;20490;-70
2022/07/17 00:35:19;;;;;;;3.13;1.70;;;;;;;15.41;100.00;102729.19;5114891;28;20452;-70
2022/07/17 00:37:47;;;;;;;7.47;2.42;;;;;;;15.33;100.00;102717.47;5114863;28;20077;-70
2022/07/17 00:40:18;;;;;;;7.22;2.13;;;;;;;15.30;100.00;102717.34;5096557;28;20110;-70
2022/07/17 00:42:43;;;;;;;6.55;1.98;;;;;;;15.33;100.00;102717.47;5114592;28;20059;-69
2022/07/17 00:45:12;;;;;;;4.18;1.70;;;;;;;15.41;100.00;102723.88;5114805;28;20055;-70
2022/07/17 00:47:55;;;;;;;7.32;2.00;;;;;;;15.64;100.00;102721.81;5094547;28;20062;-69
2022/07/17 00:50:28;;;;;;;5.68;1.83;;;;;;;15.60;100.00;102726.97;5094299;28;20027;-69
2022/07/17 00:52:53;;;;;;;9.27;2.17;;;;;;;15.63;100.00;102716.47;5075987;28;20511;-72
2022/07/17 00:55:19;;;;;;;7.05;1.80;;;;;;;15.45;100.00;102723.09;5094409;28;20127;-70
2022/07/17 00:57:49;;;;;;;4.53;1.83;;;;;;;15.31;100.00;102709.47;5107957;28;20406;-70
2022/07/17 01:00:16;;;;;;;8.35;2.33;;;;;;;15.24;100.00;102699.53;5094113;28;20483;-70
2022/07/17 01:02:45;;;;;;;3.55;2.15;;;;;;;15.23;100.00;102679.16;5093825;28;20077;-70
2022/07/17 01:05:11;;;;;;;11.13;2.40;;;;;;;15.29;100.00;102678.44;5094047;28;20468;-70
2022/07/17 01:07:36;;;;;;;4.60;2.30;;;;;;;15.36;100.00;102677.75;5075567;28;20024;-70
2022/07/17 01:10:02;;;;;;;8.68;2.28;;;;;;;15.29;100.00;102689.06;5093926;28;20448;-70
2022/07/17 01:12:27;;;;;;;4.30;2.20;;;;;;;15.28;100.00;102681.94;5093842;28;20024;-70
2022/07/17 01:14:52;;;;;;;7.93;2.28;;;;;;;15.29;100.00;102681.09;5105744;28;20030;-71
2022/07/17 01:17:19;;;;;;;6.78;2.20;;;;;;;15.38;100.00;102693.69;5095285;28;20032;-69
2022/07/17 01:19:44;;;;;;;9.13;2.50;;;;;;;15.22;100.00;102689.72;5095420;28;20023;-70
2022/07/17 01:22:09;;;;;;;10.23;2.40;;;;;;;15.08;100.00;102703.50;5098476;28;20573;-71
2022/07/17 01:24:39;;;;;;;9.68;2.65;;;;;;;14.97;100.00;102703.19;5106985;28;20050;-71
2022/07/17 01:27:04;;;;;;;8.13;2.58;;;;;;;14.93;100.00;102697.78;5108790;28;20376;-70
2022/07/17 01:29:30;;;;;;;6.57;2.28;;;;;;;14.95;100.00;102698.75;5093589;28;20024;-70
2022/07/17 01:31:55;;;;;;;6.22;2.00;;;;;;;14.93;100.00;102700.44;5093454;28;20032;-69
2022/07/17 01:34:20;;;;;;;5.57;2.30;;;;;;;14.81;100.00;102696.59;5093517;28;20024;-69
2022/07/17 01:36:46;;;;;;;4.32;2.05;;;;;;;14.79;100.00;102698.28;5093419;28;20036;-70
2022/07/17 01:39:11;;;;;;;4.03;2.17;;;;;;;14.78;100.00;102696.47;5075268;28;20452;-70
2022/07/17 01:41:37;;;;;;;4.88;2.03;;;;;;;14.75;100.00;102696.41;5106748;28;20410;-71
2022/07/17 01:44:03;;;;;;;8.95;2.85;;;;;;;15.04;100.00;102687.47;5093265;28;20028;-72
2022/07/17 01:46:29;;;;;;;5.00;2.30;;;;;;;15.03;100.00;102694.56;5097840;28;20020;-70
2022/07/17 01:48:54;;;;;;;9.05;2.67;;;;;;;14.92;100.00;102693.34;5113639;28;20032;-71
2022/07/17 01:51:21;;;;;;;4.88;2.35;;;;;;;14.90;100.00;102705.66;5095653;28;20020;-69
2022/07/17 01:53:46;;;;;;;7.50;2.20;;;;;;;14.72;100.00;102706.00;5086281;28;20051;-70
2022/07/17 01:56:12;;;;;;;5.15;2.10;;;;;;;14.56;100.00;102694.03;5113572;28;20023;-71
2022/07/17 01:58:38;;;;;;;6.45;2.10;;;;;;;14.51;100.00;102709.78;5113613;28;20058;-70
2022/07/17 02:01:03;;;;;;;5.25;2.35;;;;;;;14.47;100.00;102706.16;5095859;28;20434;-70
2022/07/17 02:03:28;;;;;;;6.95;2.40;;;;;;;14.48;100.00;102701.75;5074903;28;20024;-71
2022/07/17 02:05:54;;;;;;;10.85;2.63;;;;;;;14.45;100.00;102702.56;5110428;28;20486;-69
2022/07/17 02:08:19;;;;;;;6.85;3.20;;;;;;;14.44;100.00;102700.75;5084944;28;20060;-70
2022/07/17 02:10:44;;;;;;;6.25;2.47;;;;;;;14.39;100.00;102697.09;5093034;28;20024;-71
2022/07/17 02:13:10;;;;;;;11.18;3.13;;;;;;;14.39;100.00;102693.50;5093062;28;20018;-71
2022/07/17 02:15:35;;;;;;;7.70;2.55;;;;;;;14.32;100.00;102689.78;5092895;28;20538;-70
2022/07/17 02:18:00;;;;;;;8.82;2.80;;;;;;;14.38;100.00;102679.38;5093001;28;20404;-70
2022/07/17 02:20:26;;;;;;;7.40;2.83;;;;;;;14.43;100.00;102685.72;5099676;28;20486;-70
2022/07/17 02:22:51;;;;;;;3.28;1.92;;;;;;;14.43;100.00;102688.38;5102683;28;20027;-70
2022/07/17 02:25:16;;;;;;;6.20;2.42;;;;;;;14.36;100.00;102696.97;5106600;28;20059;-70
2022/07/17 02:27:43;;;;;;;8.30;2.63;;;;;;;14.26;100.00;102698.44;5074859;28;20459;-68
2022/07/17 02:30:14;;;;;;;7.28;3.40;;;;;;;14.31;100.00;102695.91;5092773;28;20052;-71
2022/07/17 02:32:39;;;;;;;5.38;2.55;;;;;;;14.22;100.00;102703.59;5077785;28;20031;-71
2022/07/17 02:35:07;;;;;;;5.57;2.72;;;;;;;14.19;100.00;102708.78;5096807;28;20049;-70
2022/07/17 02:37:32;;;;;;;7.43;2.53;;;;;;;14.13;100.00;102715.69;5096975;28;20379;-70
2022/07/17 02:39:58;;;;;;;7.88;2.67;;;;;;;14.14;100.00;102716.59;5096702;28;20110;-70
2022/07/17 02:42:26;;;;;;;5.78;2.83;;;;;;;14.15;100.00;102719.28;5096716;28;20384;-70
2022/07/17 02:44:52;;;;;;;5.22;2.67;;;;;;;14.19;100.00;102720.28;5096535;28;20032;-70
2022/07/17 02:47:22;;;;;;;6.43;2.58;;;;;;;14.40;100.00;102721.81;5096693;28;20028;-71
2022/07/17 02:49:48;;;;;;;5.70;2.72;;;;;;;14.28;100.00;102735.56;5096582;28;20033;-70
2022/07/17 02:52:13;;;;;;;7.05;3.17;;;;;;;14.17;100.00;102740.50;5096654;28;20028;-71
2022/07/17 02:54:39;;;;;;;4.95;3.00;;;;;;;14.19;100.00;102735.25;5096978;28;20133;-70
2022/07/17 02:57:04;;;;;;;6.53;3.00;;;;;;;14.10;100.00;102731.47;5096475;28;20027;-70
2022/07/17 02:59:29;;;;;;;4.93;2.72;;;;;;;14.11;100.00;102727.97;5078175;28;20024;-69
2022/07/17 03:01:55;;;;;;;7.30;3.30;;;;;;;14.10;100.00;102734.13;5108264;28;20062;-70
2022/07/17 03:04:20;;;;;;;8.02;4.13;;;;;;;14.03;100.00;102729.47;5098355;28;20023;-70
2022/07/17 03:06:45;;;;;;;7.03;2.65;;;;;;;14.03;100.00;102724.19;5104890;28;20028;-70
2022/07/17 03:09:11;;;;;;;7.05;2.97;;;;;;;13.98;100.00;102728.44;5114785;28;20023;-70
2022/07/17 03:11:36;;;;;;;7.43;3.63;;;;;;;13.95;100.00;102730.97;5098214;28;20019;-69
2022/07/17 03:14:01;;;;;;;7.60;3.33;;;;;;;13.88;100.00;102726.34;5097948;28;20074;-71
2022/07/17 03:16:27;;;;;;;6.70;2.60;;;;;;;13.79;100.00;102719.88;5096066;28;20022;-69
2022/07/17 03:18:52;;;;;;;7.88;3.00;;;;;;;13.81;100.00;102726.13;5109538;28;20031;-70
2022/07/17 03:21:17;;;;;;;7.60;2.88;;;;;;;13.82;100.00;102735.88;5088926;28;20052;-69
2022/07/17 03:23:43;;;;;;;4.95;2.58;;;;;;;13.80;100.00;102736.66;5102396;28;20031;-70
2022/07/17 03:26:08;;;;;;;6.78;2.88;;;;;;;13.76;100.00;102733.00;5116401;28;20116;-70
2022/07/17 03:28:33;;;;;;;10.27;2.70;;;;;;;13.77;100.00;102726.88;5116114;28;20153;-70
2022/07/17 03:30:58;;;;;;;5.40;2.45;;;;;;;13.79;100.00;102730.44;5116193;28;20106;-70
2022/07/17 03:33:24;;;;;;;11.13;3.05;;;;;;;13.74;100.00;102729.41;5097772;28;20077;-70
2022/07/17 03:35:49;;;;;;;7.80;3.00;;;;;;;13.72;100.00;102733.75;5116099;28;20047;-71
2022/07/17 03:38:14;;;;;;;9.52;2.90;;;;;;;13.69;100.00;102731.00;5116054;28;20072;-70
2022/07/17 03:40:40;;;;;;;5.32;2.92;;;;;;;13.70;100.00;102721.31;5116063;28;20051;-71
2022/07/17 03:43:06;;;;;;;8.05;2.58;;;;;;;13.72;100.00;102712.56;5111719;28;20439;-69
2022/07/17 03:45:31;;;;;;;8.00;2.85;;;;;;;13.78;100.00;102715.44;5095479;28;20024;-70
2022/07/17 03:47:56;;;;;;;8.55;3.20;;;;;;;13.78;100.00;102718.09;5095483;28;20030;-70
2022/07/17 03:50:22;;;;;;;12.15;3.33;;;;;;;13.79;100.00;102714.56;5095410;28;20028;-70
2022/07/17 03:52:47;;;;;;;4.80;3.15;;;;;;;13.76;100.00;102714.47;5095375;28;20442;-70
2022/07/17 03:55:12;;;;;;;7.25;3.10;;;;;;;13.71;100.00;102724.00;5096211;28;20085;-71
2022/07/17 03:57:38;;;;;;;7.40;2.80;;;;;;;13.70;100.00;102713.38;5095183;28;20024;-69
2022/07/17 04:00:04;;;;;;;5.20;2.97;;;;;;;13.67;100.00;102724.75;5095208;28;20115;-69
2022/07/17 04:02:29;;;;;;;6.05;3.00;;;;;;;13.64;100.00;102724.66;5095094;28;20074;-70
2022/07/17 04:04:54;;;;;;;4.68;3.20;;;;;;;13.65;100.00;102730.00;5095217;28;20048;-70
2022/07/17 04:07:30;;;;;;;8.45;3.30;;;;;;;13.69;100.00;102727.44;5079697;28;20028;-70
2022/07/17 04:09:57;;;;;;;7.13;3.20;;;;;;;13.90;100.00;102725.50;5104650;28;20020;-70
2022/07/17 04:12:23;;;;;;;4.05;2.85;;;;;;;13.89;100.00;102746.63;5094945;28;20019;-70
2022/07/17 04:14:49;;;;;;;5.63;2.80;;;;;;;13.76;100.00;102746.22;5076800;28;20027;-70
2022/07/17 04:17:15;;;;;;;6.97;3.33;;;;;;;13.67;100.00;102740.63;5095016;28;20099;-71
2022/07/17 04:19:40;;;;;;;5.57;3.30;;;;;;;13.70;100.00;102745.13;5096857;28;20074;-71
2022/07/17 04:22:05;;;;;;;6.07;3.13;;;;;;;13.68;100.00;102745.06;5098945;28;20471;-70
2022/07/17 04:24:31;;;;;;;4.78;2.80;;;;;;;13.70;100.00;102731.88;5115068;28;20049;-70
2022/07/17 04:26:56;;;;;;;7.97;2.95;;;;;;;13.84;100.00;102749.16;5097141;28;20103;-70
2022/07/17 04:29:21;;;;;;;6.32;2.67;;;;;;;13.88;100.00;102745.75;5094755;28;20020;-70
2022/07/17 04:31:47;;;;;;;6.80;3.33;;;;;;;13.83;100.00;102756.16;5094594;28;20058;-71
2022/07/17 04:34:12;;;;;;;8.25;2.55;;;;;;;13.79;100.00;102746.31;5105082;28;20495;-71
2022/07/17 04:36:37;;;;;;;8.20;2.72;;;;;;;13.82;100.00;102746.44;5096682;28;20433;-70
2022/07/17 04:39:03;;;;;;;4.28;2.85;;;;;;;13.89;100.00;102734.31;5104585;28;20487;-70
2022/07/17 04:41:28;;;;;;;6.88;2.88;;;;;;;14.08;100.00;102737.56;5076313;28;20028;-69
2022/07/17 04:43:53;;;;;;;8.05;3.03;;;;;;;14.19;100.00;102735.25;5094316;28;20375;-70
2022/07/17 04:46:19;;;;;;;7.10;2.70;;;;;;;14.19;100.00;102735.25;5097910;28;20023;-70
2022/07/17 04:48:44;;;;;;;9.50;3.40;;;;;;;14.25;100.00;102730.16;5115021;28;20020;-70
2022/07/17 04:51:10;;;;;;;4.75;2.78;;;;;;;14.22;100.00;102738.91;5097629;28;20023;-70
2022/07/17 04:53:37;;;;;;;5.22;2.40;;;;;;;14.15;100.00;102735.16;5094027;28;20050;-70
2022/07/17 04:56:03;;;;;;;7.72;2.83;;;;;;;14.25;100.00;102746.06;5094000;28;20024;-70
2022/07/17 04:58:28;;;;;;;6.85;2.85;;;;;;;14.20;100.00;102737.06;5094166;28;20089;-70
2022/07/17 05:00:53;;;;;;;9.15;2.90;;;;;;;14.24;100.00;102733.66;5094041;28;20467;-70
2022/07/17 05:03:19;;;;;;;8.23;2.65;;;;;;;14.43;100.00;102736.06;5093986;28;20066;-70
2022/07/17 05:05:44;;;;;;;11.85;3.10;;;;;;;14.62;100.00;102731.28;5094002;28;20024;-70
2022/07/17 05:08:09;;;;;;;6.65;2.80;;;;;;;14.65;100.00;102734.09;5093880;28;20032;-71
2022/07/17 05:10:35;;;;;;;4.80;2.80;;;;;;;14.66;100.00;102733.22;5093782;28;20020;-72
2022/07/17 05:13:00;;;;;;;8.35;3.03;;;;;;;14.77;100.00;102731.81;5093863;28;20012;-70
2022/07/17 05:15:25;;;;;;;5.53;2.40;;;;;;;14.80;100.00;102726.59;5093749;28;20425;-71
2022/07/17 05:17:51;;;;;;;9.70;3.08;;;;;;;14.83;100.00;102726.66;5075624;28;20028;-70
2022/07/17 05:20:16;;;;;;;6.82;2.80;;;;;;;14.91;100.00;102724.25;5098394;28;20379;-69
2022/07/17 05:22:42;;;;;;;4.93;2.85;;;;;;;14.99;100.00;102732.44;5104736;28;20035;-70
2022/07/17 05:25:08;;;;;;;10.35;3.30;;;;;;;14.96;100.00;102737.63;5109666;28;20024;-70
2022/07/17 05:27:33;;;;;;;8.27;3.20;;;;;;;14.90;100.00;102733.06;5113945;28;20028;-70
2022/07/17 05:29:58;;;;;;;7.93;2.80;;;;;;;14.88;100.00;102741.81;5113969;28;20475;-70
2022/07/17 05:32:24;;;;;;;4.25;2.35;;;;;;;14.96;100.00;102748.22;5113919;28;20046;-70
2022/07/17 05:34:49;;;;;;;9.68;2.42;;;;;;;15.01;100.00;102746.63;5113881;28;20020;-70
2022/07/17 05:37:14;;;;;;;4.57;1.98;;;;;;;15.08;100.00;102742.38;5113995;28;20023;-70
2022/07/17 05:39:40;;;;;;;6.65;2.05;;;;;;;15.16;100.00;102741.72;5111445;28;20024;-71
2022/07/17 05:42:05;;;;;;;8.32;2.35;;;;;;;15.26;100.00;102742.91;5102502;28;20035;-71
2022/07/17 05:44:31;;;;;;;6.25;1.58;;;;;;;15.31;100.00;102736.00;5113671;28;20028;-70
2022/07/17 05:46:56;;;;;;;3.35;1.50;;;;;;;15.40;100.00;102740.63;5113726;28;20023;-70
2022/07/17 05:49:21;;;;;;;5.43;1.70;;;;;;;15.47;100.00;102737.28;5113645;28;20031;-70
2022/07/17 05:51:47;;;;;;;5.50;1.58;;;;;;;15.55;100.00;102744.56;5113635;28;20019;-70
2022/07/17 05:54:12;;;;;;;6.85;1.35;;;;;;;15.61;100.00;102756.25;5112220;28;20047;-70
2022/07/17 05:56:37;;;;;;;4.20;1.50;;;;;;;15.63;100.00;102751.84;5113640;28;20020;-70
2022/07/17 05:59:03;;;;;;;8.48;1.42;;;;;;;15.70;100.00;102752.03;5113564;28;20023;-70
2022/07/17 06:01:28;;;;;;;5.68;1.55;;;;;;;15.73;100.00;102750.34;5113626;28;20371;-70
2022/07/17 06:03:54;;;;;;;3.75;1.30;;;;;;;15.75;100.00;102759.25;5113431;28;20360;-70
2022/07/17 06:06:20;;;;;;;5.32;1.50;;;;;;;15.80;100.00;102765.63;5115600;28;20019;-70
2022/07/17 06:08:46;;;;;;;9.60;1.40;;;;;;;15.88;100.00;102765.78;5120166;28;20035;-70
2022/07/17 06:11:11;;;;;;;12.68;1.52;;;;;;;15.95;100.00;102766.84;5112698;28;20024;-69
2022/07/17 06:13:36;;;;;;;11.70;1.27;;;;;;;15.99;100.00;102774.03;5081460;28;20035;-70
2022/07/17 06:16:02;;;;;;;4.10;1.17;;;;;;;16.06;100.00;102776.00;5099858;28;20066;-70
2022/07/17 06:18:27;;;;;;;9.43;1.50;;;;;;;16.12;100.00;102775.25;5102113;28;20028;-70
2022/07/17 06:20:52;;;;;;;4.18;1.20;;;;;;;16.17;100.00;102773.59;5107571;28;20023;-71
2022/07/17 06:23:18;;;;;;;6.80;1.75;;;;;;;16.23;100.00;102778.16;5106387;28;20129;-70
2022/07/17 06:25:43;;;;;;;6.68;1.30;;;;;;;16.32;100.00;102779.28;5120172;28;20498;-70
2022/07/17 06:28:08;;;;;;;5.97;1.42;;;;;;;16.37;100.00;102782.03;5120188;28;20502;-69
2022/07/17 06:30:34;;;;;;;6.03;1.15;;;;;;;16.42;100.00;102777.72;5113014;28;20572;-70
2022/07/17 06:32:59;;;;;;;7.70;1.20;;;;;;;16.47;100.00;102781.41;5099909;28;20479;-71
2022/07/17 06:35:24;;;;;;;4.05;1.15;;;;;;;16.56;100.00;102785.13;5094973;28;20034;-70
2022/07/17 06:37:50;;;;;;;5.72;1.08;;;;;;;16.62;100.00;102793.25;5099730;28;20194;-71
2022/07/17 06:40:15;;;;;;;7.13;1.48;;;;;;;16.61;100.00;102794.09;5099712;28;20085;-70
2022/07/17 06:42:40;;;;;;;3.55;1.17;;;;;;;16.68;100.00;102791.63;5099613;28;20098;-71
2022/07/17 06:45:07;;;;;;;7.50;1.30;;;;;;;16.74;100.00;102793.53;5105842;28;20028;-70
2022/07/17 06:47:32;;;;;;;6.97;1.45;;;;;;;16.73;100.00;102796.16;5106645;28;20084;-71
2022/07/17 06:49:57;;;;;;;6.97;1.70;;;;;;;16.78;100.00;102794.47;5099462;28;20044;-71
2022/07/17 06:52:22;;;;;;;3.38;1.13;;;;;;;16.80;100.00;102783.00;5094539;28;20098;-71
2022/07/17 06:54:48;;;;;;;4.95;1.20;;;;;;;16.89;100.00;102784.06;5079705;28;20157;-71
2022/07/17 06:57:13;;;;;;;4.68;1.20;;;;;;;16.98;100.00;102792.28;5092217;28;20028;-70
2022/07/17 06:59:40;;;;;;;5.05;1.50;;;;;;;17.04;100.00;102792.44;5093604;28;20476;-71
2022/07/17 07:02:05;;;;;;;6.43;1.67;;;;;;;17.11;100.00;102790.78;5079088;28;20091;-71
2022/07/17 07:04:31;;;;;;;4.45;1.20;;;;;;;17.14;100.00;102794.41;5085082;28;20066;-70
2022/07/17 07:06:56;;;;;;;3.45;1.00;;;;;;;17.22;100.00;102797.22;5086784;28;20028;-70
2022/07/17 07:09:21;;;;;;;9.38;2.00;;;;;;;17.30;100.00;102800.94;5078828;28;20047;-71
2022/07/17 07:11:47;;;;;;;10.45;1.23;;;;;;;17.34;100.00;102805.44;5079186;28;20357;-70
2022/07/17 07:14:12;;;;;;;7.75;1.25;;;;;;;17.37;100.00;102804.63;5083558;28;20490;-70
2022/07/17 07:16:38;;;;;;;6.00;1.23;;;;;;;17.41;100.00;102798.47;5086721;28;20103;-70
2022/07/17 07:19:03;;;;;;;3.50;1.08;;;;;;;17.51;100.00;102805.78;5083360;28;20110;-71
2022/07/17 07:21:29;;;;;;;3.75;0.82;;;;;;;17.62;100.00;102803.34;5091534;28;20031;-70
2022/07/17 07:23:54;;;;;;;2.97;1.20;;;;;;;17.71;100.00;102802.59;5081100;28;20028;-71
2022/07/17 07:26:20;;;;;;;5.57;1.27;;;;;;;17.70;100.00;102806.13;5095989;28;20357;-71
2022/07/17 07:28:45;;;;;;;9.27;1.40;;;;;;;17.76;100.00;102792.94;5095866;28;20386;-72
2022/07/17 07:31:11;;;;;;;3.63;1.00;;;;;;;17.83;100.00;102797.47;5095987;28;20016;-71
2022/07/17 07:33:37;;;;;;;8.38;1.35;;;;;;;17.91;100.00;102799.41;5095910;28;20420;-71
2022/07/17 07:36:03;;;;;;;5.47;1.40;;;;;;;17.93;100.00;102797.69;5095874;28;20475;-71
2022/07/17 07:38:29;;;;;;;5.72;1.35;;;;;;;17.97;100.00;102786.22;5090733;28;20032;-71
2022/07/17 07:40:54;;;;;;;2.80;0.90;;;;;;;18.08;100.00;102781.06;5076161;28;20034;-71
2022/07/17 07:43:20;;;;;;;13.65;1.55;;;;;;;18.15;100.00;102785.59;5080848;28;20028;-71
2022/07/17 07:45:45;;;;;;;4.97;1.42;;;;;;;18.16;100.00;102780.34;5084836;28;20066;-71
2022/07/17 07:48:11;;;;;;;5.68;1.60;;;;;;;18.20;100.00;102786.59;5075869;28;20048;-70
2022/07/17 07:50:36;;;;;;;5.25;1.55;;;;;;;18.27;100.00;102787.59;5075966;28;20036;-72
2022/07/17 07:53:01;;;;;;;5.60;1.15;;;;;;;18.40;100.00;102784.25;5089643;28;20101;-70
2022/07/17 07:55:27;;;;;;;3.60;0.93;;;;;;;18.50;100.00;102780.84;5094997;28;20506;-70
2022/07/17 07:58:07;;;;;;;5.57;1.27;;;;;;;18.58;100.00;102775.59;5095955;28;20430;-71
2022/07/17 08:00:33;;;;;;;3.35;1.17;;;;;;;18.71;100.00;102780.25;5096263;28;20020;-71
2022/07/17 08:02:59;;;;;;;5.38;1.40;;;;;;;18.79;99.88;102782.13;5096154;28;20387;-71
2022/07/17 08:05:25;;;;;;;3.70;0.95;;;;;;;18.84;100.00;102778.66;5096142;28;20604;-71
2022/07/17 08:07:50;;;;;;;6.85;1.25;;;;;;;18.89;100.00;102781.41;5109337;28;20028;-71
2022/07/17 08:10:15;;;;;;;6.18;1.30;;;;;;;18.87;97.67;102776.00;5108709;28;20565;-69
2022/07/17 08:12:41;;;;;;;3.30;1.00;;;;;;;18.96;96.67;102774.38;5096595;28;20480;-71
2022/07/17 08:15:06;;;;;;;4.38;1.15;;;;;;;19.01;98.82;102772.66;5108434;28;20031;-70
2022/07/17 08:17:32;;;;;;;4.13;1.00;;;;;;;19.00;97.72;102774.44;5102655;28;20432;-70
2022/07/17 08:19:57;;;;;;;4.45;0.80;;;;;;;19.07;98.06;102770.06;5104274;28;20031;-71
2022/07/17 08:22:23;;;;;;;10.02;1.40;;;;;;;19.18;98.58;102771.09;5109476;28;20062;-70
2022/07/17 08:24:48;;;;;;;1.80;0.82;;;;;;;19.27;94.81;102774.75;5095414;28;20476;-70
2022/07/17 08:27:13;;;;;;;8.15;1.02;;;;;;;19.34;92.93;102766.84;5115266;28;20141;-70
2022/07/17 08:29:39;;;;;;;3.75;1.10;;;;;;;19.33;96.32;102766.78;5115915;28;20069;-73
2022/07/17 08:32:04;;;;;;;3.70;0.90;;;;;;;19.36;93.63;102765.06;5116165;28;20072;-70
2022/07/17 08:34:30;;;;;;;3.58;1.35;;;;;;;19.46;94.98;102760.69;5116022;28;20030;-70
2022/07/17 08:36:55;;;;;;;3.60;1.10;;;;;;;19.50;95.99;102761.63;5110181;28;20066;-70
2022/07/17 08:39:20;;;;;;;3.28;1.17;;;;;;;19.69;96.96;102763.59;5095432;28;20024;-71
2022/07/17 08:41:46;;;;;;;3.53;1.00;;;;;;;19.86;94.58;102765.59;5114419;28;20028;-70
2022/07/17 08:44:11;;;;;;;3.97;1.00;;;;;;;19.92;92.28;102765.63;5102949;28;20025;-69
2022/07/17 08:46:39;;;;;;;3.97;1.10;;;;;;;20.02;90.25;102772.84;5095156;28;20056;-71
2022/07/17 08:49:07;;;;;;;5.65;1.10;;;;;;;20.11;87.81;102766.66;5095150;28;20057;-70
2022/07/17 08:51:34;;;;;;;5.32;0.85;;;;;;;20.05;86.49;102769.31;5094693;28;20063;-72
2022/07/17 08:53:59;;;;;;;2.10;0.88;;;;;;;19.98;88.76;102759.41;5095644;28;20063;-72
2022/07/17 08:56:26;;;;;;;2.42;1.00;;;;;;;20.00;90.81;102765.69;5101663;28;20028;-70
2022/07/17 08:58:52;;;;;;;4.00;1.10;;;;;;;20.06;90.74;102763.03;5102479;28;20425;-71
2022/07/17 09:01:18;;;;;;;5.90;1.10;;;;;;;20.29;91.98;102765.00;5094634;28;20103;-71
2022/07/17 09:04:16;;;;;;;6.07;1.13;;;;;;;20.45;86.54;102766.00;5094529;28;20052;-70
2022/07/17 09:06:42;;;;;;;3.60;1.00;;;;;;;20.53;83.26;102767.81;5071607;28;20399;-71
2022/07/17 09:09:13;;;;;;;5.43;1.10;;;;;;;20.70;84.41;102767.97;5098301;28;20023;-71
2022/07/17 09:11:52;;;;;;;2.15;0.98;;;;;;;20.76;78.92;102771.56;5114634;28;20096;-71
2022/07/17 09:14:19;;;;;;;3.65;0.90;;;;;;;20.79;82.43;102769.78;5094696;28;20055;-71
2022/07/17 09:17:11;;;;;;;2.75;1.15;;;;;;;20.99;85.28;102761.84;5076738;28;20016;-71
2022/07/17 09:19:42;;;;;;;2.22;1.25;;;;;;;21.12;83.93;102760.13;5092734;28;20044;-70
2022/07/17 09:22:11;;;;;;;2.75;1.20;;;;;;;21.28;77.85;102768.19;5107526;28;20035;-69
2022/07/17 09:24:40;;;;;;;2.38;1.15;;;;;;;21.30;77.69;102775.31;5105683;28;20044;-70
2022/07/17 09:27:06;;;;;;;3.67;1.60;;;;;;;21.45;75.56;102769.09;5078348;28;20099;-71
2022/07/17 09:29:31;;;;;;;3.05;1.30;;;;;;;21.51;76.73;102763.78;5094374;28;20070;-71
2022/07/17 09:31:56;;;;;;;2.90;1.05;;;;;;;21.60;74.62;102768.28;5099751;28;20461;-71
2022/07/17 09:34:23;;;;;;;4.20;1.20;;;;;;;21.66;78.02;102754.91;5114581;28;20028;-71
2022/07/17 09:36:59;;;;;;;3.30;0.85;;;;;;;21.77;77.62;102759.34;5114394;28;20111;-71
2022/07/17 09:39:37;;;;;;;3.22;1.00;;;;;;;21.75;74.26;102754.00;5100985;28;20383;-71
2022/07/17 09:42:02;;;;;;;2.60;0.90;;;;;;;21.77;74.30;102760.28;5101718;28;20062;-71
2022/07/17 09:44:28;;;;;;;4.00;1.15;;;;;;;21.93;75.84;102750.41;5114715;28;20031;-70
2022/07/17 09:46:54;;;;;;;1.98;0.90;;;;;;;22.04;79.46;102755.78;5106557;28;20031;-71
2022/07/17 09:49:21;;;;;;;4.75;1.33;;;;;;;22.29;74.98;102758.41;5093708;28;20035;-71
2022/07/17 09:51:47;;;;;;;2.65;1.20;;;;;;;22.42;69.62;102753.97;5075809;28;20471;-71
2022/07/17 09:54:13;;;;;;;4.15;1.20;;;;;;;22.54;68.38;102753.94;5108752;28;20044;-71
2022/07/17 09:56:39;;;;;;;2.05;1.02;;;;;;;22.52;68.86;102739.63;5106703;28;20024;-71
2022/07/17 09:59:12;;;;;;;1.40;0.88;;;;;;;22.72;71.51;102750.28;5107749;28;20066;-71
2022/07/17 10:01:39;;;;;;;2.10;0.90;;;;;;;22.82;71.03;102754.72;5076116;28;20040;-71
2022/07/17 10:04:05;;;;;;;2.55;0.90;;;;;;;22.74;68.01;102756.53;5093926;28;20027;-70
2022/07/17 10:06:31;;;;;;;2.45;1.00;;;;;;;22.77;68.31;102761.91;5093629;28;20387;-71
2022/07/17 10:08:56;;;;;;;3.45;1.23;;;;;;;23.01;68.82;102762.69;5093510;28;20036;-70
2022/07/17 10:11:28;;;;;;;1.88;0.98;;;;;;;23.12;64.20;102763.53;5094056;28;20031;-71
2022/07/17 10:13:56;;;;;;;2.45;1.00;;;;;;;23.23;65.33;102771.56;5094321;28;20451;-71
2022/07/17 10:16:27;;;;;;;2.92;1.00;;;;;;;23.36;61.79;102767.91;5093758;28;20422;-71
2022/07/17 10:18:54;;;;;;;2.00;1.00;;;;;;;23.21;60.07;102758.16;5110928;28;20031;-71
2022/07/17 10:21:21;;;;;;;1.88;1.05;;;;;;;23.23;60.31;102767.06;5114299;28;20023;-70
2022/07/17 10:23:52;;;;;;;1.50;0.82;;;;;;;23.29;62.74;102759.88;5100116;28;20024;-71
2022/07/17 10:26:34;;;;;;;1.40;1.10;;;;;;;23.48;66.87;102764.25;5095685;28;20039;-71
2022/07/17 10:28:59;;;;;;;1.42;0.80;;;;;;;23.64;63.45;102764.13;5106745;28;20513;-69
2022/07/17 10:31:27;;;;;;;1.65;0.90;;;;;;;23.57;61.13;102772.22;5075130;28;20028;-70
2022/07/17 10:34:00;;;;;;;3.78;1.15;;;;;;;23.96;60.10;102769.28;5093571;28;20368;-70
2022/07/17 10:36:41;;;;;;;2.85;1.02;;;;;;;24.00;59.30;102770.16;5093816;28;20038;-70
2022/07/17 10:39:17;;;;;;;5.85;1.08;;;;;;;24.00;57.90;102775.53;5093379;28;20098;-70
2022/07/17 10:41:56;;;;;;;4.47;0.70;;;;;;;24.12;55.12;102761.97;5093106;28;20028;-70
2022/07/17 10:44:30;;;;;;;1.48;0.85;;;;;;;24.38;58.90;102785.91;5093278;28;20024;-70
2022/07/17 10:46:56;;;;;;;3.22;1.38;;;;;;;24.28;53.47;102772.56;5101294;28;20023;-71
2022/07/17 10:49:22;;;;;;;4.20;1.20;;;;;;;24.63;56.54;102772.19;5114097;28;20030;-72
2022/07/17 10:51:48;;;;;;;1.45;0.95;;;;;;;24.75;56.37;102773.88;5114194;28;20027;-72
2022/07/17 10:54:13;;;;;;;2.75;1.08;;;;;;;24.94;56.12;102768.25;5114845;28;20449;-71
2022/07/17 10:56:44;;;;;;;3.85;1.08;;;;;;;25.16;59.36;102772.41;5117837;28;20527;-71
2022/07/17 10:59:10;;;;;;;2.67;1.02;;;;;;;25.14;52.64;102770.69;5115468;28;20020;-72
2022/07/17 11:01:35;;;;;;;1.30;1.05;;;;;;;25.29;52.42;102777.66;5096991;28;20387;-72
2022/07/17 11:04:01;;;;;;;1.95;1.15;;;;;;;25.34;50.27;102775.81;5096610;28;20057;-71
2022/07/17 11:06:37;;;;;;;1.33;1.08;;;;;;;25.07;51.44;102767.19;5078896;28;20035;-72
2022/07/17 11:09:11;;;;;;;2.00;1.20;;;;;;;25.22;53.53;102772.34;5114073;28;20486;-70
2022/07/17 11:11:37;;;;;;;2.63;1.38;;;;;;;25.05;50.11;102758.22;5106262;28;20487;-71
2022/07/17 11:14:20;;;;;;;4.55;1.80;;;;;;;24.82;51.42;102762.09;5101644;28;20096;-71
2022/07/17 11:16:48;;;;;;;3.45;1.40;;;;;;;25.47;50.20;102758.53;5103954;28;20027;-70